Moody, Missouri
Current Conditions -  °F | °C
As of 1:53 AM on Monday 24 Nov 2014 (Local Time) from KUNO Reporting Station
Overcast Overcast  
Wind Chill: 34°   Ceiling: 1500
Heat Index: 43°   Visibility: 7mi
Dew Point: 39°   Wind: 21mph
Humidity: 86%   Direction: 290°WNW
Pressure: 29.44"   Gusts: 35mph
Location:  36.53°N, 91.99°W
Report Text: KUNO 240753Z AUTO 29018G30KT 7SM OVC015 06/04 A2944 RMK AO2 PK WND 31030/0748 RAE01B34E45 PRESRR SLP966 P0000 T00610039
Loading
Personal Weather Stations






























Interactive Weather Map New forecast layout! Learn more

10-Day Weather Forecast

Advertisements
Track Severe Weather on mobile